createdAt,value
2022-12-13T00:02:03.130Z,35.60
2022-12-13T00:04:33.211Z,39.97
2022-12-13T00:07:02.808Z,37.60
2022-12-13T00:09:32.585Z,41.10
2022-12-13T00:12:02.379Z,45.90
2022-12-13T00:14:33.699Z,51.33
2022-12-13T00:17:03.646Z,56.67
2022-12-13T00:19:33.037Z,55.15
2022-12-13T00:22:02.963Z,41.83
2022-12-13T00:24:32.577Z,32.75
2022-12-13T00:27:02.183Z,29.65
2022-12-13T00:29:32.302Z,32.35
2022-12-13T00:32:01.884Z,31.20
2022-12-13T00:34:32.069Z,30.52
2022-12-13T00:37:01.803Z,27.40
2022-12-13T00:39:31.345Z,27.25
2022-12-13T00:42:01.433Z,30.35
2022-12-13T00:44:32.236Z,34.83
2022-12-13T00:47:02.226Z,40.25
2022-12-13T00:49:31.693Z,43.65
2022-12-13T00:52:01.330Z,42.17
2022-12-13T00:54:31.039Z,41.30
2022-12-13T00:57:00.665Z,36.78
2022-12-13T00:59:30.362Z,33.08
2022-12-13T01:02:00.115Z,31.25
2022-12-13T01:04:29.821Z,31.25
2022-12-13T01:06:59.439Z,32.15
2022-12-13T01:09:30.943Z,34.22
2022-12-13T01:12:02.986Z,35.05
2022-12-13T01:14:32.902Z,36.03
2022-12-13T01:17:02.969Z,37.20
2022-12-13T01:19:33.950Z,37.05
2022-12-13T01:22:08.558Z,37.10
2022-12-13T01:24:38.229Z,37.47
2022-12-13T01:27:08.471Z,43.00
2022-12-13T01:29:38.790Z,43.20
2022-12-13T01:32:08.469Z,44.90
2022-12-13T01:34:38.413Z,47.72
2022-12-13T01:37:08.224Z,47.97
2022-12-13T01:39:37.831Z,42.05
2022-12-13T01:42:08.383Z,41.30
2022-12-13T01:45:08.104Z,38.35
2022-12-13T01:48:07.127Z,40.45
2022-12-13T01:50:42.188Z,45.13
2022-12-13T01:53:20.569Z,47.33
2022-12-13T01:55:56.423Z,59.25
2022-12-13T01:58:27.897Z,48.45
2022-12-13T02:00:58.270Z,45.90
2022-12-13T02:03:28.667Z,44.85
2022-12-13T02:06:12.219Z,41.85
2022-12-13T02:08:43.359Z,39.97
2022-12-13T02:11:14.540Z,40.38
2022-12-13T02:13:44.729Z,43.75
2022-12-13T02:16:22.443Z,49.40
2022-12-13T02:19:18.307Z,43.60
2022-12-13T02:22:32.047Z,44.35
2022-12-13T02:25:28.906Z,40.75
2022-12-13T02:28:30.614Z,36.85
2022-12-13T02:31:39.850Z,36.50
2022-12-13T02:34:22.351Z,44.67
2022-12-13T02:37:24.247Z,45.72
2022-12-13T02:39:59.507Z,54.55
2022-12-13T02:42:39.523Z,59.58
2022-12-13T02:45:26.748Z,57.15
2022-12-13T02:47:59.773Z,57.13
2022-12-13T02:50:30.481Z,45.70
2022-12-13T02:53:02.384Z,36.13
2022-12-13T02:55:33.567Z,35.30
2022-12-13T02:58:03.628Z,39.03
2022-12-13T03:00:45.398Z,37.45
2022-12-13T03:03:27.571Z,39.38
2022-12-13T03:06:26.009Z,42.22
2022-12-13T03:09:16.751Z,43.63
2022-12-13T03:12:25.425Z,47.30
2022-12-13T03:15:01.211Z,53.53
2022-12-13T03:17:39.175Z,49.05
2022-12-13T03:20:22.224Z,44.50
2022-12-13T03:22:54.439Z,49.53
2022-12-13T03:25:32.171Z,48.03
2022-12-13T03:28:03.643Z,42.47
2022-12-13T03:30:34.668Z,42.55
2022-12-13T03:33:04.439Z,36.50
2022-12-13T03:35:45.267Z,34.83
2022-12-13T03:38:22.314Z,32.75
2022-12-13T03:40:59.371Z,33.28
2022-12-13T03:43:30.387Z,36.20
2022-12-13T03:46:00.196Z,33.55
2022-12-13T03:48:30.006Z,35.50
2022-12-13T03:50:59.964Z,36.95
2022-12-13T03:53:33.460Z,37.15
2022-12-13T03:56:06.466Z,36.97
2022-12-13T03:58:38.333Z,35.95
2022-12-13T04:01:10.741Z,36.38
2022-12-13T04:03:41.899Z,32.42
2022-12-13T04:06:21.968Z,35.33
2022-12-13T04:08:53.860Z,37.42
2022-12-13T04:11:43.239Z,36.90
2022-12-13T04:14:22.335Z,33.30
2022-12-13T04:16:53.849Z,31.60
2022-12-13T04:19:24.299Z,35.53
2022-12-13T04:21:55.703Z,38.28
2022-12-13T04:24:31.929Z,35.25
2022-12-13T04:27:03.402Z,37.63
2022-12-13T04:29:34.501Z,36.95
2022-12-13T04:32:26.521Z,32.40
2022-12-13T04:35:01.029Z,33.72
2022-12-13T04:37:43.379Z,41.28
2022-12-13T04:40:14.013Z,34.30
2022-12-13T04:42:54.116Z,34.17
2022-12-13T04:45:24.386Z,30.38
2022-12-13T04:47:54.236Z,31.20
2022-12-13T04:50:23.671Z,33.58
2022-12-13T04:52:53.687Z,33.25
2022-12-13T04:55:23.214Z,28.15
2022-12-13T04:57:53.447Z,27.92
2022-12-13T05:00:24.196Z,31.17
2022-12-13T05:02:54.373Z,30.15
2022-12-13T05:05:24.322Z,37.22
2022-12-13T05:07:53.769Z,33.40
2022-12-13T05:10:34.227Z,27.38
2022-12-13T05:13:08.225Z,25.23
2022-12-13T05:15:39.197Z,27.83
2022-12-13T05:18:10.636Z,34.97
2022-12-13T05:20:41.500Z,26.33
2022-12-13T05:23:11.182Z,27.63
2022-12-13T05:25:40.603Z,30.27
2022-12-13T05:28:27.445Z,27.23
2022-12-13T05:31:00.044Z,27.67
2022-12-13T05:33:29.999Z,28.15
2022-12-13T05:36:02.056Z,24.13
2022-12-13T05:38:32.825Z,25.88
2022-12-13T05:41:02.597Z,22.40
2022-12-13T05:43:42.395Z,22.48
2022-12-13T05:46:13.615Z,23.17
2022-12-13T05:48:44.774Z,26.00
2022-12-13T05:51:14.730Z,27.92
2022-12-13T05:53:47.310Z,26.23
2022-12-13T05:56:22.348Z,25.48
2022-12-13T05:58:53.637Z,24.02
2022-12-13T06:01:24.668Z,23.02
2022-12-13T06:03:54.789Z,24.90
2022-12-13T06:06:24.673Z,28.70
2022-12-13T06:08:54.491Z,21.55
2022-12-13T06:11:31.689Z,22.08
2022-12-13T06:14:02.310Z,21.50
2022-12-13T06:16:32.046Z,19.55
2022-12-13T06:19:04.687Z,17.52
2022-12-13T06:21:43.854Z,18.58
2022-12-13T06:24:20.942Z,18.42
2022-12-13T06:26:52.799Z,20.70
2022-12-13T06:29:25.686Z,22.38
2022-12-13T06:32:01.170Z,21.80
2022-12-13T06:34:36.093Z,19.52
2022-12-13T06:37:10.330Z,18.20
2022-12-13T06:39:41.042Z,18.45
2022-12-13T06:42:21.457Z,15.15
2022-12-13T06:44:55.751Z,17.25
2022-12-13T06:47:32.041Z,17.60
2022-12-13T06:50:05.016Z,19.95
2022-12-13T06:52:36.414Z,20.70
2022-12-13T06:55:06.809Z,19.60
2022-12-13T06:57:37.321Z,17.50
2022-12-13T07:00:11.785Z,15.70
2022-12-13T07:02:41.446Z,20.50
2022-12-13T07:05:12.509Z,19.95
2022-12-13T07:07:42.126Z,16.58
2022-12-13T07:10:21.520Z,17.40
2022-12-13T07:12:52.126Z,15.82
2022-12-13T07:15:22.312Z,17.33
2022-12-13T07:17:53.259Z,15.15
2022-12-13T07:20:24.857Z,13.25
2022-12-13T07:22:59.086Z,17.40
2022-12-13T07:25:29.833Z,16.10
2022-12-13T07:28:04.597Z,15.20
2022-12-13T07:30:41.695Z,15.18
2022-12-13T07:33:12.884Z,20.33
2022-12-13T07:36:19.132Z,16.73
2022-12-13T07:38:57.121Z,21.83
2022-12-13T07:41:28.492Z,13.30
2022-12-13T07:43:58.576Z,17.27
2022-12-13T07:46:33.275Z,15.02
2022-12-13T07:49:04.335Z,17.00
2022-12-13T07:51:36.568Z,17.00
2022-12-13T07:54:09.885Z,14.98
2022-12-13T07:56:39.647Z,12.90
2022-12-13T07:59:11.187Z,14.95
2022-12-13T08:01:41.084Z,14.98
2022-12-13T08:04:11.522Z,13.27
2022-12-13T08:06:46.102Z,15.05
2022-12-13T08:09:16.195Z,15.07
2022-12-13T08:11:46.219Z,16.02
2022-12-13T08:14:16.039Z,13.90
2022-12-13T08:16:45.927Z,14.90
2022-12-13T08:19:16.058Z,13.90
2022-12-13T08:21:55.246Z,14.35
2022-12-13T08:24:27.456Z,13.98
2022-12-13T08:27:02.372Z,11.40
2022-12-13T08:29:36.234Z,14.55
2022-12-13T08:32:09.679Z,14.68
2022-12-13T08:34:40.551Z,12.68
2022-12-13T08:37:10.468Z,12.48
2022-12-13T08:39:41.487Z,16.30
2022-12-13T08:42:19.346Z,13.02
2022-12-13T08:44:55.024Z,14.00
2022-12-13T08:47:27.449Z,13.90
2022-12-13T08:50:04.428Z,11.95
2022-12-13T08:52:40.589Z,13.73
2022-12-13T08:55:14.680Z,11.45
2022-12-13T08:57:45.918Z,12.20
2022-12-13T09:00:20.001Z,11.07
2022-12-13T09:02:50.038Z,12.10
2022-12-13T09:05:32.414Z,15.15
2022-12-13T09:08:23.007Z,14.50
2022-12-13T09:11:00.096Z,14.40
2022-12-13T09:13:32.935Z,12.65
2022-12-13T09:16:22.909Z,16.42
2022-12-13T09:18:57.003Z,15.90
2022-12-13T09:21:31.435Z,16.40
2022-12-13T09:24:02.780Z,16.15
2022-12-13T09:26:38.368Z,14.45
2022-12-13T09:29:10.942Z,14.10
2022-12-13T09:31:42.438Z,14.57
2022-12-13T09:34:13.941Z,12.57
2022-12-13T09:36:44.424Z,16.25
2022-12-13T09:39:14.267Z,13.98
2022-12-13T09:42:01.411Z,12.80
2022-12-13T09:44:43.826Z,12.10
2022-12-13T09:47:39.217Z,13.30
2022-12-13T09:50:40.429Z,13.10
2022-12-13T09:53:21.702Z,12.60
2022-12-13T09:55:53.534Z,12.05
2022-12-13T09:58:41.229Z,12.57
2022-12-13T10:01:13.744Z,12.30
2022-12-13T10:04:02.966Z,14.00
2022-12-13T10:06:35.853Z,15.43
2022-12-13T10:09:12.352Z,13.90
2022-12-13T10:11:53.918Z,12.27
2022-12-13T10:14:41.432Z,12.43
2022-12-13T10:17:17.777Z,12.70
2022-12-13T10:19:52.601Z,15.25
2022-12-13T10:22:26.783Z,11.15
2022-12-13T10:25:07.372Z,9.75
2022-12-13T10:27:42.869Z,9.45
2022-12-13T10:30:28.471Z,9.90
2022-12-13T10:33:07.455Z,9.52
2022-12-13T10:35:42.444Z,9.70
2022-12-13T10:38:18.329Z,10.60
2022-12-13T10:40:50.114Z,10.52
2022-12-13T10:43:31.498Z,9.60
2022-12-13T10:46:03.961Z,12.60
2022-12-13T10:48:48.388Z,15.60
2022-12-13T10:51:24.182Z,16.58
2022-12-13T10:54:01.635Z,21.35
2022-12-13T10:56:51.671Z,11.93
2022-12-13T10:59:29.224Z,11.50
2022-12-13T11:01:58.950Z,10.80
2022-12-13T11:04:37.284Z,13.65
2022-12-13T11:07:28.197Z,13.07
2022-12-13T11:10:05.651Z,12.37
2022-12-13T11:12:45.407Z,11.73
2022-12-13T11:15:30.558Z,11.15
2022-12-13T11:18:06.130Z,12.95
2022-12-13T11:20:39.118Z,17.17
2022-12-13T11:23:30.691Z,17.50
2022-12-13T11:26:06.925Z,17.10
2022-12-13T11:28:54.830Z,15.95
2022-12-13T11:31:30.656Z,17.20
2022-12-13T11:34:30.987Z,20.15
2022-12-13T11:37:28.553Z,21.40
2022-12-13T11:40:16.824Z,22.67
2022-12-13T11:42:53.744Z,21.45
2022-12-13T11:45:26.659Z,18.70
2022-12-13T11:48:03.074Z,19.55
2022-12-13T11:50:45.803Z,17.23
2022-12-13T11:53:21.845Z,17.38
2022-12-13T11:56:22.762Z,15.77
2022-12-13T11:59:20.709Z,16.05
2022-12-13T12:04:58.076Z,17.95
2022-12-13T12:07:35.969Z,21.50
2022-12-13T12:10:29.511Z,22.13
2022-12-13T12:13:23.597Z,25.90
2022-12-13T12:16:21.459Z,25.98
2022-12-13T12:18:53.311Z,23.08
2022-12-13T12:22:12.029Z,23.42
2022-12-13T12:25:15.986Z,26.25
2022-12-13T12:28:30.390Z,27.40
2022-12-13T12:31:12.616Z,28.98
2022-12-13T12:33:58.028Z,30.47
2022-12-13T12:36:30.259Z,35.20
2022-12-13T12:39:12.328Z,37.17
2022-12-13T12:41:51.091Z,36.58
2022-12-13T12:44:35.695Z,32.67
2022-12-13T12:48:39.491Z,30.13
2022-12-13T12:50:45.897Z,30.10
2022-12-13T12:53:31.207Z,30.38
2022-12-13T12:56:24.187Z,29.05
2022-12-13T13:01:54.862Z,27.85
2022-12-13T13:04:34.916Z,26.63
2022-12-13T13:07:23.354Z,27.67
2022-12-13T13:09:55.698Z,25.55
2022-12-13T13:12:29.942Z,32.38
2022-12-13T13:15:01.967Z,38.35
2022-12-13T13:17:31.590Z,31.70
2022-12-13T13:20:34.135Z,29.80
2022-12-13T13:23:38.621Z,29.35
2022-12-13T13:26:26.100Z,24.00
2022-12-13T13:28:56.174Z,30.08
2022-12-13T13:31:26.222Z,23.55
2022-12-13T13:33:55.940Z,23.80
2022-12-13T13:36:41.821Z,26.67
2022-12-13T13:40:00.618Z,25.88
2022-12-13T13:42:32.803Z,26.45
2022-12-13T13:47:35.747Z,29.60
2022-12-13T13:50:18.785Z,31.05
2022-12-13T13:52:58.075Z,36.80
2022-12-13T13:55:39.799Z,39.25
2022-12-13T13:58:34.021Z,36.58
2022-12-13T14:01:36.565Z,37.08
2022-12-13T14:04:28.339Z,36.33
2022-12-13T14:07:33.929Z,32.28
2022-12-13T14:10:38.865Z,27.77
2022-12-13T14:13:34.445Z,29.88
2022-12-13T14:16:38.167Z,33.20
2022-12-13T14:19:45.831Z,33.30
2022-12-13T14:22:31.611Z,32.90
2022-12-13T14:25:13.466Z,38.45
2022-12-13T14:27:54.797Z,43.80
2022-12-13T14:30:26.870Z,59.10
2022-12-13T14:32:58.467Z,67.57
2022-12-13T14:35:33.712Z,67.35
2022-12-13T14:38:06.007Z,70.57
2022-12-13T14:40:48.688Z,71.72
2022-12-13T14:43:30.296Z,69.70
2022-12-13T14:46:06.600Z,68.43
2022-12-13T14:48:55.679Z,69.97
2022-12-13T14:51:35.035Z,71.20
2022-12-13T14:54:07.925Z,70.65
2022-12-13T14:56:55.228Z,74.20
2022-12-13T14:59:25.737Z,73.25
2022-12-13T15:02:00.980Z,74.53
2022-12-13T15:04:38.445Z,72.47
2022-12-13T15:07:31.635Z,67.82
2022-12-13T15:10:09.740Z,66.78
2022-12-13T15:12:44.882Z,59.08
2022-12-13T15:15:37.260Z,60.63
2022-12-13T15:18:20.724Z,56.95
2022-12-13T15:20:54.564Z,62.08
2022-12-13T15:23:34.939Z,71.85
2022-12-13T15:26:29.067Z,72.85
2022-12-13T15:29:09.406Z,67.80
2022-12-13T15:31:41.491Z,64.03
2022-12-13T15:34:30.548Z,56.03
2022-12-13T15:37:29.629Z,56.30
2022-12-13T15:40:10.419Z,53.30
2022-12-13T15:42:45.727Z,55.28
2022-12-13T15:45:22.957Z,52.15
2022-12-13T15:47:54.585Z,49.30
2022-12-13T15:50:47.224Z,48.33
2022-12-13T15:53:30.221Z,45.20
2022-12-13T15:56:04.748Z,47.20
2022-12-13T15:58:38.918Z,51.25
2022-12-13T16:01:08.922Z,56.05
2022-12-13T16:03:48.121Z,69.20
2022-12-13T16:06:23.362Z,66.60
2022-12-13T16:09:00.105Z,51.08
2022-12-13T16:12:05.720Z,50.30
2022-12-13T16:14:54.825Z,48.80
2022-12-13T16:17:56.097Z,52.88
2022-12-13T16:20:30.139Z,53.67
2022-12-13T16:23:08.778Z,51.65
2022-12-13T16:25:41.734Z,49.28
2022-12-13T16:28:17.432Z,48.97
2022-12-13T16:30:57.184Z,52.53
2022-12-13T16:33:28.620Z,51.50
2022-12-13T16:36:07.717Z,52.63
2022-12-13T16:38:38.651Z,47.13
2022-12-13T16:41:09.984Z,42.97
2022-12-13T16:43:54.846Z,43.22
2022-12-13T16:47:16.058Z,40.72
2022-12-13T16:49:26.426Z,35.08
2022-12-13T16:51:57.481Z,35.38
2022-12-13T16:54:28.584Z,33.42
2022-12-13T16:56:58.732Z,34.80
2022-12-13T16:59:30.725Z,33.25
2022-12-13T17:02:04.065Z,33.03
2022-12-13T17:04:35.004Z,30.95
2022-12-13T17:07:05.359Z,33.83
2022-12-13T17:09:36.628Z,35.38
2022-12-13T17:12:07.311Z,36.53
2022-12-13T17:14:37.182Z,36.95
2022-12-13T17:17:06.927Z,35.78
2022-12-13T17:19:37.429Z,33.72
2022-12-13T17:22:07.451Z,33.67
2022-12-13T17:24:37.496Z,35.92
2022-12-13T17:27:07.585Z,38.22
2022-12-13T17:29:39.352Z,41.13
2022-12-13T17:32:09.997Z,51.17
2022-12-13T17:34:39.874Z,51.47
2022-12-13T17:37:10.765Z,51.67
2022-12-13T17:39:41.179Z,53.67
2022-12-13T17:42:13.007Z,53.33
2022-12-13T17:44:44.244Z,51.30
2022-12-13T17:47:15.160Z,51.70
2022-12-13T17:49:48.344Z,51.65
2022-12-13T17:52:18.967Z,49.70
2022-12-13T17:54:49.636Z,48.63
2022-12-13T17:57:20.258Z,45.45
2022-12-13T17:59:50.802Z,46.17
2022-12-13T18:02:24.237Z,45.13
2022-12-13T18:04:54.195Z,47.85
2022-12-13T18:07:26.185Z,45.17
2022-12-13T18:09:56.003Z,46.95
2022-12-13T18:12:25.637Z,50.17
2022-12-13T18:14:55.752Z,49.45
2022-12-13T18:17:46.620Z,52.47
2022-12-13T18:20:16.006Z,54.35
2022-12-13T18:22:51.142Z,54.20
2022-12-13T18:25:21.282Z,55.17
2022-12-13T18:27:51.579Z,53.58
2022-12-13T18:32:52.911Z,47.75
2022-12-13T18:35:22.558Z,48.75
2022-12-13T18:37:53.434Z,48.75
2022-12-13T18:40:23.202Z,48.20
2022-12-13T18:42:53.724Z,47.03
2022-12-13T18:45:23.350Z,47.88
2022-12-13T18:47:52.979Z,45.78
2022-12-13T18:50:22.969Z,44.22
2022-12-13T18:52:53.022Z,44.33
2022-12-13T18:55:22.728Z,47.17
2022-12-13T18:57:54.044Z,47.90
2022-12-13T19:00:25.324Z,47.75
2022-12-13T19:02:55.167Z,44.55
2022-12-13T19:05:25.126Z,43.97
2022-12-13T19:07:55.126Z,43.75
2022-12-13T19:10:24.923Z,44.25
2022-12-13T19:12:54.779Z,42.08
2022-12-13T19:15:24.521Z,41.03
2022-12-13T19:17:54.801Z,39.80
2022-12-13T19:20:24.645Z,38.13
2022-12-13T19:22:55.029Z,41.15
2022-12-13T19:25:24.838Z,43.50
2022-12-13T19:27:57.690Z,44.00
2022-12-13T19:30:28.013Z,44.03
2022-12-13T19:32:57.752Z,46.08
2022-12-13T19:35:27.699Z,45.72
2022-12-13T19:37:57.065Z,55.05
2022-12-13T19:40:26.685Z,56.70
2022-12-13T19:42:56.863Z,63.35
2022-12-13T19:45:26.356Z,66.93
2022-12-13T19:47:55.913Z,65.57
2022-12-13T19:50:25.909Z,105.03
2022-12-13T19:52:55.452Z,156.50
2022-12-13T19:55:24.809Z,164.50
2022-12-13T19:57:54.812Z,143.02
2022-12-13T20:00:24.536Z,118.68
2022-12-13T20:02:54.683Z,103.75
2022-12-13T20:05:24.841Z,95.57
2022-12-13T20:07:59.139Z,90.70
2022-12-13T20:10:29.774Z,90.72
2022-12-13T20:12:59.653Z,88.40
2022-12-13T20:15:29.864Z,149.63
2022-12-13T20:17:59.658Z,174.88
2022-12-13T20:20:46.977Z,134.25
2022-12-13T20:23:20.522Z,132.93
2022-12-13T20:26:00.143Z,140.93
2022-12-13T20:28:30.268Z,119.47
2022-12-13T20:31:17.287Z,123.78
2022-12-13T20:33:47.228Z,122.28
2022-12-13T20:36:25.801Z,134.15
2022-12-13T20:39:01.998Z,123.22
2022-12-13T20:41:34.339Z,102.57
2022-12-13T20:44:06.330Z,102.55
2022-12-13T20:46:36.344Z,100.53
2022-12-13T20:49:08.425Z,95.38
2022-12-13T20:51:42.616Z,91.78
2022-12-13T20:54:12.371Z,84.78
2022-12-13T20:56:42.234Z,93.32
2022-12-13T20:59:14.909Z,88.75
2022-12-13T21:01:48.782Z,78.20
2022-12-13T21:04:19.738Z,59.92
2022-12-13T21:06:49.590Z,62.67
2022-12-13T21:09:19.397Z,63.03
2022-12-13T21:11:51.351Z,68.60
2022-12-13T21:14:26.608Z,60.80
2022-12-13T21:17:01.584Z,55.80
2022-12-13T21:19:39.318Z,51.83
2022-12-13T21:22:10.104Z,47.30
2022-12-13T21:24:39.895Z,51.20
2022-12-13T21:27:09.617Z,41.85
2022-12-13T21:29:39.477Z,57.72
2022-12-13T21:32:09.219Z,71.75
2022-12-13T21:34:38.741Z,62.55
2022-12-13T21:37:08.586Z,54.15
2022-12-13T21:39:41.158Z,44.20
2022-12-13T21:42:11.310Z,40.38
2022-12-13T21:44:40.908Z,39.30
2022-12-13T21:47:12.204Z,39.78
2022-12-13T21:49:48.824Z,35.70
2022-12-13T21:52:18.755Z,39.95
2022-12-13T21:54:48.294Z,44.15
2022-12-13T21:57:38.176Z,64.18
2022-12-13T22:00:09.476Z,66.72
2022-12-13T22:02:42.057Z,63.10
2022-12-13T22:05:12.327Z,54.05
2022-12-13T22:07:41.931Z,45.65
2022-12-13T22:10:11.500Z,42.75
2022-12-13T22:12:43.096Z,40.30
2022-12-13T22:15:17.716Z,36.20
2022-12-13T22:17:47.642Z,38.00
2022-12-13T22:20:17.198Z,39.35
2022-12-13T22:22:49.747Z,37.90
2022-12-13T22:25:19.914Z,36.97
2022-12-13T22:27:49.728Z,36.65
2022-12-13T22:30:19.091Z,37.45
2022-12-13T22:32:48.710Z,34.65
2022-12-13T22:35:18.271Z,40.63
2022-12-13T22:37:51.040Z,39.47
2022-12-13T22:40:20.855Z,38.35
2022-12-13T22:42:50.132Z,39.95
2022-12-13T22:45:19.795Z,37.78
2022-12-13T22:47:50.449Z,38.42
2022-12-13T22:50:21.818Z,39.13
2022-12-13T22:52:51.772Z,37.33
2022-12-13T22:55:21.746Z,39.05
2022-12-13T22:57:54.353Z,38.42
2022-12-13T23:00:24.090Z,35.67
2022-12-13T23:02:56.589Z,39.63
2022-12-13T23:07:55.684Z,37.03
2022-12-13T23:10:43.540Z,35.13
2022-12-13T23:13:15.916Z,37.58
2022-12-13T23:15:49.352Z,34.35
2022-12-13T23:18:19.602Z,33.00
2022-12-13T23:20:48.937Z,33.38
2022-12-13T23:23:18.749Z,32.33
2022-12-13T23:25:48.852Z,33.90
2022-12-13T23:28:19.067Z,32.58
2022-12-13T23:30:48.860Z,31.60
2022-12-13T23:33:18.866Z,28.60
2022-12-13T23:35:48.053Z,29.73
2022-12-13T23:38:18.086Z,29.13
2022-12-13T23:40:47.700Z,31.63
2022-12-13T23:43:17.964Z,31.95
2022-12-13T23:45:47.582Z,30.00
2022-12-13T23:48:19.191Z,29.42
2022-12-13T23:50:52.350Z,29.10
2022-12-13T23:53:22.879Z,28.42
2022-12-13T23:55:52.844Z,29.45
2022-12-13T23:58:24.008Z,29.77
